Montague, CA (96064)

12:55 PM PDT on July 28, 2015 (GMT -0700)
Mount Shasta | | Change Station
CLOSE
Current Station
Airport
Location: Mount Shasta,
Elevation: 3533 ft
Nearby Weather Stations

Elev 3533 ft 41.32 °N, 122.32 °W | Updated 59 minutes ago

Clear
Clear
78 °F
Feels Like 78 °F
N
6
Wind Variable Wind from Variable

Today
High -- | Low -- °F
--% Chance of Precip.
Yesterday
High -- | Low -- °F
Precip. -- in
5:58 AM 8:29 PM
Waxing Gibbous, 91% visible
Pressure 30.12 in
Visibility 10.0 miles
Clouds Clear
Dew Point 42 °F
Humidity 28%
Rainfall 0.00 in
Snow Depth Not available.
UV 11 out of 12
Pollen 4.10 out of 12
Air Quality Not available.
Flu Activity Not available.
METAR KMHS 281856Z AUTO VRB05KT 10SM CLR 26/06 A3016 RMK AO2 SLP199 T02560056

More Conditions Fewer Conditions

Pressure 30.12 in
Visibility 10.0 miles
Clouds Clear
Dew Point 42 °F
Humidity 28%
Rainfall 0.00 in
Snow Depth Not available.
UV 11 out of 12
Pollen 4.10 out of 12
Air Quality Not available.
Flu Activity Not available.
METAR KMHS 281856Z AUTO VRB05KT 10SM CLR 26/06 A3016 RMK AO2 SLP199 T02560056

More Conditions Fewer Conditions

A strong ridge of high pressure will aid in providing some of the warmest temperatures of the Summer thus far along the West Coast, while dangerously high heat index values up to 110 degrees will be possible from southern Iowa through northern Louisiana. Residents are urged to take precaution while working outside.

10-Day Weather Forecast

×

Almanac

Astronomy

Jul. 28, 2015 Rise Set
Actual Time
Civil Twilight
Nautical Twilight
Astronomical Twilight
Moon
Length of Visible Light
Length of Day
Tomorrow will be .
, % of the Moon is Illuminated

Today's Extremes

State Highs State Lows

Community

WunderPhotos

Upload Photos

1,841,935 photos uploaded!

WunderBlogs® & News

Nearby

Air Quality

  Air Quality AQ Index Pollutant
Not available.

Snow Depth

Station Depth Elevation

Earthquake Activity

City Distance Mag. Time & Date
Minimum magnitude displayed is 2.5.

Coastal Water Temperatures

Place Temperature

Stations

Nearby Weather Stations

Station Location Temp. Windchill Dew Point Humidity Wind Precip. Elev Updated Type